Weather observations for the past three days for
L O Simenstad Municipal Airport
Imperial (Metric)
Date Time (cdt) Wind (mph) Vis. (mi.) Weather Sky Cond. Temperature (ºF) Relative Humidity Wind Chill (°F) Heat Index (°F) Pressure Precipitation (in)
Air Dwpt 6 hour altimeter (in) sea level (mb) 1 hr 3 hr 6 hr
Max. Min.
10 15:55 N 8 G 16 10.00 Fair CLR 57.9 17.8 21% 30.17 0.0
10 15:35 N 10 G 17 10.00 Fair CLR 57.2 20.1 24% 30.17 0.0
10 15:15 W 7 G 18 10.00 Fair CLR 56.7 18.3 22% 30.16 0.0
10 14:55 W 9 G 17 10.00 Fair CLR 55.9 18.9 23% 30.17 0.0
10 14:35 NW 16 G 22 10.00 Fair CLR 56.1 18.7 23% 30.17 0.0
10 14:15 NW 12 10.00 Fair CLR 55.9 20.5 25% 30.16 0.0
10 13:55 NW 13 G 21 10.00 Fair CLR 56.1 21.2 26% 30.16 0.0
10 13:35 NW 14 G 24 10.00 Fair CLR 55.8 21 26% 30.16 0.0
10 13:15 N 17 G 23 10.00 Partly Cloudy SCT060 55.8 21.7 27% 30.16 0.0
10 12:55 NW 9 G 22 10.00 Fair CLR 55 20.5 55.2 39.6 26% 30.16 0.0
10 12:35 N 14 G 21 10.00 Fair CLR 55 21.2 27% 30.16 0.0
10 12:15 N 18 G 24 10.00 Fair CLR 54.7 20.5 26% 30.16 0.0
10 11:55 N 16 G 23 10.00 Fair CLR 54.1 20.3 27% 30.16 0.0
10 11:35 NW 14 G 22 10.00 Fair CLR 54 20.3 27% 30.16 0.0
10 11:15 W 15 G 26 10.00 Fair CLR 53.4 19.6 26% 30.16 0.0
10 10:55 W 16 G 20 10.00 Partly Cloudy SCT080 52.2 21 29% 30.15 0.0
10 10:35 NW 10 G 17 10.00 Fair CLR 51.8 24.1 34% 30.15 0.0
10 10:15 NW 12 G 16 10.00 Mostly Cloudy SCT070 BKN090 50.9 26.4 39% 30.15 0.0
10 09:55 NW 13 G 16 10.00 Overcast BKN070 OVC090 49.1 27.5 43% 45 30.15 0.0
10 09:35 NW 8 10.00 Overcast BKN070 OVC090 47.3 30.4 52% 44 30.15 0.0
10 09:15 NW 9 10.00 Overcast BKN070 OVC080 46.4 30.4 54% 42 30.15 0.0
10 08:55 NW 12 10.00 Mostly Cloudy BKN070 BKN080 BKN100 46.4 30.7 55% 42 30.14 0.0
10 08:35 N 8 10.00 Overcast SCT060 SCT070 OVC100 46.4 32 57% 43 30.14 0.0
10 08:15 NW 7 10.00 Overcast SCT070 OVC100 45.1 32.2 61% 42 30.13 0.0
10 07:55 Calm 10.00 Overcast SCT070 OVC100 43.2 33.3 68% 30.13 0.0
10 07:35 Calm 10.00 Overcast SCT070 SCT080 OVC100 41.7 34.5 76% 30.13 0.0
10 07:15 Calm 10.00 Overcast SCT070 OVC100 40.3 34.9 81% 30.12 0.0
10 06:55 Calm 10.00 Overcast BKN080 OVC090 39.6 33.8 39.6 33.3 80% 30.11 0.0
10 06:35 Calm 10.00 Overcast BKN075 OVC100 38.3 34 84% 30.11 0.0
10 06:15 Calm 10.00 Overcast SCT075 OVC100 37.8 32.5 82% 30.1 0.0
10 05:55 Calm 10.00 Overcast BKN075 OVC100 37.4 32.5 83% 30.1 0.0
10 05:35 Calm 10.00 Overcast SCT075 OVC100 36.3 32 84% 30.09 0.0
10 05:15 Calm 10.00 Overcast SCT075 OVC100 35.6 31.6 86% 30.07 0.0
10 04:55 S 3 10.00 Overcast SCT075 OVC100 35.1 30.4 83% 30.07 0.0
10 04:35 Calm 10.00 Overcast OVC100 36.5 28.8 74% 30.06 0.0
10 04:15 Calm 10.00 Overcast OVC100 36.1 30.4 80% 30.06 0.0
10 03:55 Calm 10.00 Overcast OVC100 35.6 31.1 84% 30.05 0.0
10 03:35 Calm 10.00 Overcast OVC100 33.8 29.8 85% 30.04 0.0
10 03:15 Calm 10.00 Mostly Cloudy BKN100 33.8 30.2 87% 30.03 0.0
10 02:55 Calm 10.00 Partly Cloudy SCT100 33.6 28.6 82% 30.03 0.0
10 02:35 Calm 10.00 Fair CLR 34.7 29.7 82% 30.02 0.0
10 02:15 Calm 10.00 Fair CLR 35.6 29.3 78% 30.02 0.0
10 01:55 Calm 10.00 Fair CLR 35.8 28.2 74% 30.02 0.0
10 01:35 Calm 10.00 Fair CLR 36.5 28.8 74% 30.02 0.0
10 01:15 Calm 10.00 Fair CLR 36.9 26.4 66% 30.02 0.0
10 00:55 Calm 10.00 Fair CLR 36.7 26.4 57.2 36.7 66% 30.02 0.0
10 00:35 S 3 10.00 Fair CLR 38.1 26.1 62% 30.01 0.0
10 00:15 Calm 10.00 Fair CLR 41 25.2 53% 30.01 0.0
09 23:55 Calm 10.00 Fair CLR 46 22.1 39% 30 0.0
09 23:35 Calm 10.00 Fair CLR 46.9 21 36% 30 0.0
09 23:15 Calm 10.00 Partly Cloudy SCT095 47.7 20.8 35% 30 0.0
09 22:55 N 5 10.00 Partly Cloudy SCT095 48.2 20.5 33% 47 30 0.0
09 22:30 N 5 10.00 Partly Cloudy SCT095 49.1 20.3 32% 48 29.99 0.0
09 22:15 N 6 10.00 Partly Cloudy SCT095 50 19.4 30% 48 29.98 0.0
09 21:55 NW 6 10.00 Mostly Cloudy BKN095 50.5 19.6 29% 29.97 0.0
09 21:35 N 3 10.00 Overcast OVC095 51.4 19.6 28% 29.96 0.0
09 21:15 NW 6 10.00 Mostly Cloudy BKN095 52.2 19 27% 29.94 0.0
09 20:55 NW 8 10.00 Partly Cloudy SCT095 52.9 17.8 25% 29.93 0.0
09 20:35 NW 7 10.00 Mostly Cloudy BKN095 53.6 16.9 23% 29.92 0.0
09 20:15 NW 8 10.00 Overcast OVC095 54.3 16.5 22% 29.91 0.0
09 19:55 NW 10 G 16 10.00 Partly Cloudy SCT095 54.7 15.8 21% 29.91 0.0
09 19:35 NW 10 G 17 10.00 Fair CLR 55.2 15.4 21% 29.9 0.0
09 19:15 NW 12 G 24 10.00 Fair CLR 56.8 15.1 19% 29.9 0.0
09 18:55 NW 12 10.00 Fair CLR 56.8 15.8 59.2 56.5 20% 29.88 0.0
09 18:35 NW 14 G 21 10.00 Fair CLR 58.1 16 19% 29.88 0.0
09 18:15 NW 14 G 29 10.00 Fair CLR 58.1 15.8 19% 29.87 0.0
09 17:55 NW 15 G 20 10.00 Fair CLR 58.8 16.5 19% 29.87 0.0
09 17:35 NW 20 G 24 10.00 Fair CLR 58.8 13.6 17% 29.87 0.0
09 17:15 NW 18 G 24 10.00 Fair CLR 58.8 14.4 17% 29.86 0.0
09 16:55 NW 18 G 26 10.00 Fair CLR 58.6 14.4 17% 29.86 0.0
09 16:35 N 15 G 25 10.00 Fair CLR 58.8 16.5 19% 29.85 0.0
09 16:15 NW 20 G 26 10.00 Fair CLR 58.5 16.2 19% 29.85 0.0
09 15:55 NW 17 G 25 10.00 Fair CLR 58.6 18.3 21% 29.84 0.0
09 15:35 NW 12 G 24 10.00 Fair CLR 58.5 18 21% 29.84 0.0
09 15:15 NW 15 G 29 10.00 Fair CLR 58.3 17.1 20% 29.84 0.0
09 14:55 NW 18 G 26 10.00 Fair CLR 58.6 18.9 21% 29.83 0.0
09 14:35 NW 24 G 31 10.00 Fair and Breezy CLR 58.3 19.8 22% 29.82 0.0
09 14:15 NW 16 G 24 10.00 Fair CLR 58.1 19.2 22% 29.82 0.0
09 13:55 W 18 G 30 10.00 Fair CLR 57.7 18.3 21% 29.82 0.0
09 13:35 NW 16 G 26 10.00 Fair CLR 57.4 19.8 23% 29.81 0.0
09 13:15 NW 16 G 25 10.00 Fair CLR 57 19.4 23% 29.81 0.0
09 12:55 NW 18 G 26 10.00 Fair CLR 56.3 20.5 57 46.4 25% 29.81 0.0
09 12:35 NW 13 G 23 10.00 Fair CLR 56.3 23 28% 29.8 0.0
09 12:15 NW 16 G 29 10.00 Partly Cloudy SCT060 55.6 23 28% 29.8 0.0
09 11:55 NW 15 G 23 10.00 Partly Cloudy SCT060 55.4 25.5 32% 29.79 0.0
09 11:35 NW 20 G 26 10.00 Mostly Cloudy BKN060 55.2 25 31% 29.79 0.0
09 11:15 NW 14 G 22 10.00 Partly Cloudy SCT048 SCT060 54.5 26.8 34% 29.78 0.0
09 10:55 NW 12 G 23 10.00 Mostly Cloudy SCT040 BKN048 BKN060 53.8 31.1 42% 29.77 0.0
09 10:35 NW 13 G 21 10.00 Partly Cloudy SCT040 SCT047 SCT060 53.6 33.4 47% 29.76 0.0
09 10:15 NW 14 G 21 10.00 Partly Cloudy SCT034 53.6 34.9 49% 29.75 0.0
09 09:55 NW 12 G 21 10.00 Fair CLR 52.5 36.5 55% 29.74 0.0
09 09:35 N 12 G 18 10.00 Fair CLR 52 37.8 59% 29.74 0.0
09 09:15 N 12 G 17 10.00 Partly Cloudy SCT024 SCT031 51.4 38.1 61% 29.73 0.0
09 08:55 NW 13 G 21 10.00 Partly Cloudy SCT023 SCT028 50.5 39.7 67% 29.72 0.0
09 08:35 NW 8 10.00 Partly Cloudy SCT040 SCT046 SCT050 49.5 43.5 80% 47 29.72 0.0
09 08:15 W 7 10.00 Overcast SCT012 BKN040 OVC055 48.2 44.1 86% 46 29.71 0.0
09 07:55 NW 3 10.00 Overcast SCT010 SCT047 OVC055 47.8 44.1 87% 29.71 0.0
09 07:35 NW 3 10.00 Partly Cloudy SCT010 SCT027 SCT055 47.5 43.9 87% 29.7 0.0
09 07:15 NW 6 10.00 Partly Cloudy SCT027 46.8 44.8 93% 44 29.69 0.0
09 06:55 NW 5 10.00 Mostly Cloudy SCT011 BKN029 46.4 46.2 52.7 46.2 99% 45 29.68 0.0 0.08
09 06:35 NW 6 10.00 Overcast SCT007 BKN010 OVC017 46.4 46.4 100% 44 29.67 0.0
09 06:15 NW 5 10.00 Overcast BKN019 BKN030 OVC039 0 0 0% 29.66 0.0
09 05:55 Calm 10.00 Overcast SCT023 BKN032 OVC040 46.4 46 99% 29.64 0.0 0.07
09 05:35 Calm 7.00 Overcast SCT031 BKN040 OVC048 46.6 44.1 91% 29.64 0.0 0.05
09 05:15 Calm 10.00 Overcast OVC050 47.1 43.2 86% 29.63 0.0 0.01
09 04:55 N 3 10.00 Overcast OVC048 47.7 42.1 81% 29.64 0.0 0.01
09 04:35 NW 7 10.00 Overcast BKN048 OVC060 49.5 39 67% 47 29.65 0.0
09 04:15 NW 8 10.00 Overcast SCT070 BKN080 OVC090 52.2 34.9 52% 29.64 0.0
09 03:55 NW 12 G 16 10.00 Overcast OVC090 52.7 31.8 45% 29.63 0.0
09 03:35 NW 3 10.00 Overcast OVC090 48.2 31.8 53% 29.63 0.0
09 03:15 Calm 10.00 Overcast SCT070 OVC090 48.2 33.4 57% 29.62 0.0
09 02:55 Calm 10.00 Overcast SCT070 OVC080 49.3 30.9 49% 29.61 0.0
09 02:35 Calm 10.00 Overcast OVC080 48.9 32.4 53% 29.62 0.0
09 02:15 NW 5 10.00 Overcast BKN080 OVC110 48.2 31.3 52% 47 29.63 0.0
09 01:55 Calm 10.00 Mostly Cloudy BKN110 46.4 32.7 59% 29.62 0.0
09 01:35 E 3 10.00 Fair CLR 46.9 33.1 59% 29.61 0.0
09 01:15 Calm 10.00 Fair CLR 47.8 28.8 48% 29.62 0.0
09 00:55 Calm 10.00 Fair CLR 48 27.1 67.6 48 44% 29.63 0.0
09 00:35 Calm 10.00 Fair CLR 48.7 26.2 42% 29.63 0.0
09 00:15 W 3 10.00 Fair CLR 52.3 21.4 30% 29.63 0.0
08 23:55 W 3 10.00 Fair CLR 53.8 20.7 27% 29.63 0.0
08 23:35 W 8 10.00 Fair CLR 54.9 21.2 27% 29.64 0.0
08 23:15 W 7 10.00 Fair CLR 56.7 21.2 25% 29.64 0.0
08 22:55 W 7 10.00 Fair CLR 57.9 21.2 24% 29.64 0.0
08 22:35 W 7 10.00 Fair CLR 58.3 22.3 25% 29.63 0.0
08 22:15 W 7 10.00 Fair CLR 59.2 22.6 24% 29.63 0.0
08 21:55 NW 12 G 18 10.00 Fair CLR 61 22.5 23% 29.62 0.0
08 21:35 W 14 10.00 Fair CLR 62.1 21.9 21% 29.61 0.0
08 21:15 W 12 10.00 Fair CLR 62.1 19.6 19% 29.6 0.0
08 20:55 W 7 10.00 Fair CLR 61.3 19.2 20% 29.59 0.0
08 20:30 W 6 10.00 Partly Cloudy SCT110 62.4 20.1 20% 29.59 0.0
08 20:15 W 6 10.00 Mostly Cloudy BKN110 63.5 21 20% 29.58 0.0
08 19:55 W 5 10.00 Overcast OVC110 65.8 22.5 19% 29.58 0.0
08 19:35 W 3 10.00 Mostly Cloudy BKN110 66.7 21.4 18% 29.58 0.0
08 19:15 W 6 10.00 Mostly Cloudy BKN110 65.8 19.6 17% 29.58 0.0
08 18:55 W 3 10.00 Mostly Cloudy BKN110 67.6 18.7 70.9 64.8 15% 29.59 0.0
08 18:35 W 6 10.00 Partly Cloudy SCT120 67.3 18.3 15% 29.59 0.0
08 17:55 NW 6 10.00 Partly Cloudy SCT110 70 16.2 13% 29.6 0.0
08 17:35 NW 8 10.00 Mostly Cloudy BKN110 69.8 14 12% 29.61 0.0
08 17:15 W 13 10.00 Partly Cloudy SCT110 70.5 15.3 12% 29.61 0.0
08 16:55 W 10 10.00 Partly Cloudy SCT110 69.1 13.3 11% 29.62 0.0
08 16:35 NW 8 G 18 10.00 Partly Cloudy SCT110 70.5 15.6 12% 29.62 0.0
08 16:15 W 8 10.00 Partly Cloudy SCT110 69.8 14.7 12% 29.63 0.0
08 15:55 NW 6 10.00 Partly Cloudy SCT100 69.4 14.2 12% 29.64 0.0
08 15:35 W 10 10.00 Partly Cloudy SCT100 68.2 16.3 14% 29.65 0.0
08 15:15 W 12 G 18 10.00 Partly Cloudy SCT110 67.8 16.5 14% 29.66 0.0
08 14:35 W 12 G 21 10.00 Mostly Cloudy BKN110 67.8 16.5 14% 29.67 0.0
08 14:15 W 12 G 18 10.00 Mostly Cloudy BKN110 67.8 18.1 15% 29.68 0.0
08 13:55 NW 8 10.00 Fair CLR 65.8 17.8 16% 29.69 0.0
08 13:35 W 9 G 18 10.00 Fair CLR 65.1 18.7 17% 29.7 0.0
08 13:15 W 6 G 17 10.00 Fair CLR 65.5 18.5 16% 29.71 0.0
08 12:35 W 8 10.00 Fair CLR 64.4 22.1 20% 29.73 0.0
08 12:15 W 6 10.00 Partly Cloudy SCT090 63.3 21.7 20% 29.74 0.0
08 11:55 W 8 10.00 Mostly Cloudy BKN100 61.7 22.1 22% 29.74 0.0
08 11:35 SW 9 10.00 Mostly Cloudy BKN100 60.8 24.4 25% 29.75 0.0
08 11:15 W 6 10.00 Overcast OVC100 58.1 22.5 25% 29.76 0.0
08 10:55 SW 8 10.00 Overcast OVC100 57.7 23.7 27% 29.76 0.0
08 10:35 SW 3 10.00 Overcast OVC100 56.5 23.4 28% 29.77 0.0
08 10:15 W 3 10.00 Overcast OVC100 55.6 23.7 29% 29.77 0.0
08 09:55 Calm 10.00 Overcast OVC100 53.6 24.4 32% 29.78 0.0
08 09:35 W 3 10.00 Mostly Cloudy BKN110 52.9 25.2 34% 29.79 0.0
08 09:15 Calm 10.00 Fair CLR 51.8 26.4 37% 29.8 0.0
08 08:35 Calm 10.00 Partly Cloudy SCT110 48.7 26.6 42% 29.8 0.0
08 08:15 Calm 10.00 Partly Cloudy SCT110 47.1 26.8 45% 29.81 0.0
08 07:55 Calm 10.00 Fair CLR 44.6 29.5 55% 29.81 0.0
08 07:35 Calm 10.00 Fair CLR 42.1 30 62% 29.81 0.0
08 07:15 Calm 10.00 Fair CLR 37 32.2 83% 29.81 0.0
08 06:55 Calm 10.00 Fair CLR 33.3 29.7 35.4 31.1 87% 29.8 0.0
08 06:35 Calm 10.00 Fair CLR 32 27.7 84% 29.8 0.0
08 06:15 Calm 10.00 Fair CLR 31.5 27.1 84% 29.8 0.0
08 05:55 Calm 10.00 Fair CLR 31.5 28.6 89% 29.8 0.0
08 05:35 Calm 10.00 Fair CLR 32 27 82% 29.8 0.0
08 05:15 Calm 10.00 Fair CLR 32.5 27.5 82% 29.8 0.0
08 04:55 Calm 10.00 Fair CLR 33.1 28.2 82% 29.8 0.0
08 04:35 Calm 10.00 Fair CLR 33.6 28.9 83% 29.8 0.0
08 04:15 Calm 10.00 Fair CLR 32.2 29.5 90% 29.8 0.0
08 03:55 Calm 10.00 Fair CLR 33.1 29.3 86% 29.8 0.0
08 03:35 Calm 10.00 Fair CLR 34.2 28 78% 29.8 0.0
08 03:15 Calm 10.00 Fair CLR 34.2 28.9 81% 29.8 0.0
08 02:55 Calm 10.00 Fair CLR 34.7 29.1 80% 29.8 0.0
08 02:35 Calm 10.00 Fair CLR 34.7 30.9 86% 29.8 0.0
08 02:15 Calm 10.00 Fair CLR 34.7 28.9 80% 29.81 0.0
08 01:55 Calm 10.00 Fair CLR 34.9 28.6 78% 29.81 0.0
08 01:35 Calm 10.00 Fair CLR 34.7 28.2 77% 29.81 0.0
08 01:15 Calm 10.00 Fair CLR 34.7 29.1 80% 29.81 0.0
08 00:55 Calm 10.00 Fair CLR 34.9 29.8 57.7 34.9 82% 29.81 0.0
08 00:35 Calm 10.00 Fair CLR 36 30 79% 29.82 0.0
08 00:15 Calm 10.00 Fair CLR 36.1 27.3 70% 29.82 0.0
07 23:55 Calm 10.00 Fair CLR 36.9 28.8 73% 29.82 0.0
07 23:35 Calm 10.00 Fair CLR 38.3 29.7 71% 29.83 0.0
07 23:15 Calm 10.00 Fair CLR 38.3 30.6 74% 29.83 0.0
07 22:55 Calm 10.00 Fair CLR 40.5 27.3 60% 29.83 0.0
07 22:35 Calm 10.00 Fair CLR 40.1 27.1 60% 29.84 0.0
07 22:15 Calm 10.00 Fair CLR 41.9 25.7 53% 29.84 0.0
07 21:55 Calm 10.00 Fair CLR 41.2 27.1 57% 29.84 0.0
07 21:35 Calm 10.00 Fair CLR 45.5 22.8 41% 29.84 0.0
07 21:15 Calm 10.00 Fair CLR 45.1 23.7 43% 29.83 0.0
07 20:55 Calm 10.00 Fair CLR 48.7 19.4 31% 29.83 0.0
07 20:35 Calm 10.00 Fair CLR 50.9 18 27% 29.82 0.0
07 20:15 Calm 10.00 Partly Cloudy SCT090 52.7 15.3 23% 29.82 0.0
07 19:55 W 6 10.00 Mostly Cloudy BKN090 53.1 17.1 24% 29.82 0.0
07 19:35 W 6 10.00 Partly Cloudy SCT090 55 15.8 21% 29.82 0.0
07 19:15 W 8 10.00 Mostly Cloudy BKN100 55.8 14.7 20% 29.83 0.0
07 18:55 W 9 10.00 Mostly Cloudy BKN100 57.7 12.4 58.8 51.4 16% 29.83 0.0
07 18:35 W 10 10.00 Mostly Cloudy BKN100 56.5 13.1 18% 29.83 0.0
07 18:15 W 10 10.00 Mostly Cloudy BKN100 56.3 12.7 18% 29.83 0.0
07 17:55 W 13 G 18 10.00 Mostly Cloudy BKN100 56.8 11.5 16% 29.84 0.0
07 17:35 W 10 G 16 10.00 Mostly Cloudy BKN090 56.5 12.2 17% 29.84 0.0
07 17:15 NW 3 10.00 Mostly Cloudy BKN090 56.7 10 15% 29.84 0.0
07 16:55 W 13 G 18 10.00 Mostly Cloudy BKN090 57.7 12 16% 29.85 0.0
07 16:35 W 8 10.00 Partly Cloudy SCT090 55.9 11.7 17% 29.84 0.0
07 16:15 W 9 10.00 Partly Cloudy SCT090 55 12.7 18% 29.85 0.0
Date Time (cdt) Wind (mph) Vis. (mi.) Weather Sky Cond. Air Dwpt Max. Min. Relative Humidity Wind Chill (°F) Heat Index (°F) altimeter (in) sea level (mb) 1 hr 3 hr 6 hr
6 hour
Temperature (ºF) Pressure Precipitation (in)